Time;durP1;ratioP1;P1;durP2;ratioP2;P2;SDS_P1;SDS_P2;PMS_P1;PMS_P2;Temp;Humidity;BMP_temperature;BMP_pressure;BME280_temperature;BME280_humidity;BME280_pressure;Samples;Min_cycle;Max_cycle;Signal;HPM_P1;HPM_P2
2023/02/23 00:02:00;;;;;;;42.43;12.90;;;-0.10;99.90;;;;;;4350846;28;657800;-73
2023/02/23 00:04:47;;;;;;;50.10;14.20;;;-0.10;99.90;;;;;;4405550;28;658819;-73
2023/02/23 00:07:35;;;;;;;45.55;12.18;;;-0.10;99.90;;;;;;4413820;28;657283;-73
2023/02/23 00:10:29;;;;;;;37.57;12.13;;;-0.20;99.90;;;;;;4389136;28;658098;-73
2023/02/23 00:13:16;;;;;;;36.57;12.03;;;-0.20;99.90;;;;;;4356501;28;658789;-73
2023/02/23 00:16:11;;;;;;;30.53;10.30;;;-0.10;46.00;;;;;;4413117;28;657282;-72
2023/02/23 00:18:59;;;;;;;33.30;12.03;;;-0.20;1.00;;;;;;4389854;28;658087;-73
2023/02/23 00:21:46;;;;;;;30.40;10.30;;;-0.20;1.00;;;;;;4389252;28;657132;-73
2023/02/23 00:24:35;;;;;;;32.43;11.43;;;-0.20;1.00;;;;;;4403657;28;657391;-73
2023/02/23 00:27:22;;;;;;;25.83;10.20;;;-0.30;1.00;;;;;;4395522;28;657403;-73
2023/02/23 00:30:11;;;;;;;48.17;13.73;;;-0.30;20.40;;;;;;4392410;28;656684;-73
2023/02/23 00:32:59;;;;;;;32.87;11.40;;;-0.30;99.90;;;;;;4363047;28;658244;-73
2023/02/23 00:35:47;;;;;;;40.57;15.67;;;-0.30;99.90;;;;;;4372778;28;658176;-73
2023/02/23 00:38:35;;;;;;;40.63;14.40;;;-0.30;99.90;;;;;;4407515;28;657304;-73
2023/02/23 00:41:27;;;;;;;49.53;16.33;;;-0.40;99.90;;;;;;4376129;28;657797;-73
2023/02/23 00:44:14;;;;;;;33.20;12.33;;;-0.40;1.00;;;;;;4369804;28;657452;-73
2023/02/23 00:47:02;;;;;;;32.93;11.73;;;-0.40;1.00;;;;;;4392443;28;656305;-73
2023/02/23 00:49:51;;;;;;;26.35;11.55;;;-0.40;1.00;;;;;;4413240;28;656441;-73
2023/02/23 00:52:38;;;;;;;23.80;10.20;;;-0.40;1.00;;;;;;4388469;28;656904;-73
2023/02/23 00:55:25;;;;;;;22.47;9.77;;;-0.40;1.00;;;;;;4378477;28;656599;-73
2023/02/23 00:58:13;;;;;;;26.37;10.60;;;-0.40;1.00;;;;;;4407785;28;655541;-73
2023/02/23 01:01:00;;;;;;;24.03;10.20;;;-0.50;1.00;;;;;;4406876;28;656282;-73
2023/02/23 01:03:47;;;;;;;27.37;10.87;;;-0.40;1.00;;;;;;4396143;28;656849;-73
2023/02/23 01:06:38;;;;;;;23.00;10.40;;;-0.40;1.00;;;;;;4404041;28;656587;-73
2023/02/23 01:09:28;;;;;;;25.60;10.90;;;-0.50;1.00;;;;;;4385526;28;656296;-73
2023/02/23 01:12:15;;;;;;;24.00;9.67;;;-0.40;99.90;;;;;;4396460;28;656738;-73
2023/02/23 01:15:03;;;;;;;30.83;10.30;;;-0.40;99.90;;;;;;4412228;28;657056;-73
2023/02/23 01:17:50;;;;;;;25.02;10.68;;;-0.40;99.90;;;;;;4389501;28;657567;-73
2023/02/23 01:20:40;;;;;;;27.60;10.60;;;-0.50;99.90;;;;;;4399571;28;658346;-73
2023/02/23 01:23:29;;;;;;;25.80;10.13;;;-0.50;99.90;;;;;;4376516;28;658402;-73
2023/02/23 01:26:18;;;;;;;26.10;10.33;;;-0.50;1.00;;;;;;4384964;28;658231;-74
2023/02/23 01:29:07;;;;;;;20.07;9.60;;;-0.50;1.00;;;;;;4409173;28;656544;-73
2023/02/23 01:31:54;;;;;;;26.83;11.17;;;-0.50;1.00;;;;;;4398546;28;655265;-73
2023/02/23 01:34:41;;;;;;;25.00;10.43;;;-0.50;7.80;;;;;;4389917;28;656338;-73
2023/02/23 01:37:29;;;;;;;18.73;9.70;;;-0.60;99.90;;;;;;4408401;28;656486;-73
2023/02/23 01:40:27;;;;;;;25.70;10.10;;;-0.50;99.90;;;;;;4376626;28;656674;-73
2023/02/23 01:43:15;;;;;;;27.97;11.93;;;-0.60;99.90;;;;;;4371587;28;657996;-73
2023/02/23 01:46:03;;;;;;;20.93;10.80;;;-0.60;99.90;;;;;;4397190;28;658550;-73
2023/02/23 01:48:50;;;;;;;26.13;10.70;;;-0.60;1.00;;;;;;4393554;28;657998;-73
2023/02/23 01:51:40;;;;;;;22.97;9.97;;;-0.60;56.30;;;;;;4395210;28;657012;-73
2023/02/23 01:54:29;;;;;;;24.87;10.20;;;-0.50;1.00;;;;;;4373295;28;657242;-73
2023/02/23 01:57:19;;;;;;;26.03;11.57;;;-0.50;1.00;;;;;;4397593;28;656389;-73
2023/02/23 02:00:11;;;;;;;25.40;11.10;;;-0.50;1.00;;;;;;4398505;28;656596;-73
2023/02/23 02:03:00;;;;;;;25.47;11.00;;;-0.60;1.00;;;;;;4396514;28;656932;-73
2023/02/23 02:05:47;;;;;;;28.57;12.07;;;-0.60;80.20;;;;;;4389536;28;657455;-73
2023/02/23 02:08:41;;;;;;;29.63;12.37;;;-0.60;99.90;;;;;;4414640;28;657485;-73
2023/02/23 02:11:35;;;;;;;27.97;12.10;;;-0.60;1.00;;;;;;4385390;28;657945;-73
2023/02/23 02:14:26;;;;;;;24.80;11.70;;;-0.60;99.90;;;;;;4366618;28;656812;-73
2023/02/23 02:17:19;;;;;;;25.73;10.13;;;-0.60;1.00;;;;;;4385229;28;657758;-73
2023/02/23 02:20:31;;;;;;;32.27;11.93;;;-0.70;1.00;;;;;;4385391;28;656616;-73
2023/02/23 02:23:54;;;;;;;26.33;10.68;;;-0.60;1.00;;;;;;4374943;28;656195;-73
2023/02/23 02:26:49;;;;;;;27.27;11.33;;;-0.60;1.00;;;;;;4390973;28;656588;-73
2023/02/23 02:30:09;;;;;;;24.80;10.87;;;-0.60;99.90;;;;;;4390208;28;656452;-73
2023/02/23 02:33:15;;;;;;;29.13;11.27;;;-0.60;99.90;;;;;;4360261;28;657965;-73
2023/02/23 02:36:36;;;;;;;30.60;13.00;;;-0.60;1.00;;;;;;4348890;28;657782;-73
2023/02/23 02:39:34;;;;;;;27.47;12.87;;;-0.60;24.00;;;;;;4386909;28;656556;-73
2023/02/23 02:42:22;;;;;;;27.40;12.13;;;-0.70;99.90;;;;;;4377400;28;657987;-73
2023/02/23 02:45:12;;;;;;;30.63;12.70;;;-0.70;99.90;;;;;;4388521;28;657613;-73
2023/02/23 02:48:05;;;;;;;27.00;11.90;;;-0.70;1.00;;;;;;4409245;28;657620;-73
2023/02/23 02:50:55;;;;;;;27.63;12.67;;;-0.70;1.00;;;;;;4386836;28;656542;-73
2023/02/23 02:53:44;;;;;;;27.67;12.03;;;-0.60;1.00;;;;;;4388931;28;657134;-73
2023/02/23 02:56:35;;;;;;;34.93;13.40;;;-0.60;1.00;;;;;;4393475;28;657935;-73
2023/02/23 04:19:49;;;;;;;39.03;16.53;;;-0.90;1.00;;;;;;4418371;28;657579;-74
2023/02/23 04:22:36;;;;;;;41.03;16.93;;;-0.90;1.00;;;;;;4370069;28;656931;-74
2023/02/23 04:25:24;;;;;;;35.00;15.53;;;-1.00;1.00;;;;;;4409411;28;657546;-73
2023/02/23 04:28:11;;;;;;;39.17;17.23;;;-1.00;1.00;;;;;;4386781;28;656989;-74
2023/02/23 04:31:01;;;;;;;46.23;17.93;;;-1.00;1.00;;;;;;4411607;28;657240;-74
2023/02/23 04:33:48;;;;;;;38.00;18.17;;;-1.10;1.00;;;;;;4394203;28;657568;-74
2023/02/23 04:36:36;;;;;;;51.38;20.60;;;-1.10;1.00;;;;;;4400227;28;657130;-73
2023/02/23 04:39:23;;;;;;;43.00;17.80;;;-1.10;1.00;;;;;;4422135;28;657300;-74
2023/02/23 04:42:11;;;;;;;43.87;18.60;;;-1.10;1.00;;;;;;4383407;28;656245;-74
2023/02/23 04:44:58;;;;;;;39.33;17.07;;;-1.20;1.00;;;;;;4414686;28;657083;-74
2023/02/23 04:47:47;;;;;;;45.97;17.60;;;-1.20;1.00;;;;;;4386031;28;656842;-74
2023/02/23 04:50:34;;;;;;;36.07;15.17;;;-1.20;1.00;;;;;;4402657;28;656592;-74
2023/02/23 04:53:21;;;;;;;37.57;15.03;;;-1.20;1.00;;;;;;4393528;28;656401;-74
2023/02/23 04:56:08;;;;;;;38.17;16.97;;;-1.20;1.00;;;;;;4404089;28;657039;-74
2023/02/23 04:58:55;;;;;;;45.27;18.13;;;-1.20;1.00;;;;;;4386999;28;656344;-74
2023/02/23 05:01:43;;;;;;;40.67;17.60;;;-1.20;1.00;;;;;;4425742;28;657277;-74
2023/02/23 05:04:33;;;;;;;43.58;18.48;;;-1.30;1.00;;;;;;4397156;28;657316;-74
2023/02/23 05:07:20;;;;;;;41.13;16.93;;;-1.20;1.00;;;;;;4389322;28;656807;-74
2023/02/23 05:10:09;;;;;;;39.43;16.07;;;-1.20;1.00;;;;;;4424031;28;656993;-74
2023/02/23 05:12:56;;;;;;;39.30;17.40;;;-1.20;1.00;;;;;;4390551;28;656677;-74
2023/02/23 05:15:43;;;;;;;47.60;17.30;;;-1.20;1.00;;;;;;4413780;28;656994;-74
2023/02/23 05:18:30;;;;;;;39.10;16.27;;;-1.20;1.00;;;;;;4371979;28;656981;-74
2023/02/23 05:21:19;;;;;;;40.63;15.10;;;-1.20;1.00;;;;;;4394142;28;657054;-74
2023/02/23 05:24:07;;;;;;;37.33;15.27;;;-1.30;1.00;;;;;;4396975;28;656277;-74
2023/02/23 05:26:54;;;;;;;37.03;15.13;;;-1.30;1.00;;;;;;4429719;28;656626;-74
2023/02/23 05:29:41;;;;;;;35.43;15.27;;;-1.30;1.00;;;;;;4392416;28;656706;-74
2023/02/23 05:32:28;;;;;;;37.67;15.60;;;-1.30;1.00;;;;;;4412245;28;656513;-74
2023/02/23 05:35:16;;;;;;;32.03;14.83;;;-1.30;1.00;;;;;;4387467;28;656173;-74
2023/02/23 05:38:04;;;;;;;37.33;16.40;;;-1.30;1.00;;;;;;4423579;28;657261;-74
2023/02/23 05:40:51;;;;;;;40.60;17.13;;;-1.30;1.00;;;;;;4377695;28;656643;-74
2023/02/23 05:43:39;;;;;;;38.13;15.87;;;-1.30;1.00;;;;;;4420945;28;656693;-74
2023/02/23 05:46:26;;;;;;;38.87;16.27;;;-1.30;1.00;;;;;;4410605;28;656823;-74
2023/02/23 05:49:14;;;;;;;45.90;17.30;;;-1.30;1.00;;;;;;4385915;28;656314;-74
2023/02/23 05:52:01;;;;;;;37.70;16.47;;;-1.30;1.00;;;;;;4391337;28;656655;-74
2023/02/23 05:54:49;;;;;;;57.03;20.33;;;-1.30;1.00;;;;;;4412174;28;656613;-74
2023/02/23 05:57:37;;;;;;;40.90;17.33;;;-1.30;1.00;;;;;;4395324;28;656529;-74
2023/02/23 06:00:24;;;;;;;37.73;16.40;;;-1.30;1.00;;;;;;4398277;28;656517;-74
2023/02/23 06:03:11;;;;;;;39.10;16.70;;;-1.20;1.00;;;;;;4376977;28;656847;-74
2023/02/23 06:05:58;;;;;;;33.30;15.70;;;-1.20;1.00;;;;;;4404482;28;656560;-74
2023/02/23 06:08:46;;;;;;;30.57;15.17;;;-1.20;1.00;;;;;;4385110;28;656850;-74
2023/02/23 06:11:35;;;;;;;42.93;16.60;;;-1.10;1.00;;;;;;4403536;28;656708;-74
2023/02/23 06:14:22;;;;;;;40.10;16.63;;;-1.10;1.00;;;;;;4377677;28;656796;-74
2023/02/23 06:17:09;;;;;;;33.65;16.58;;;-1.00;1.00;;;;;;4404981;28;656242;-74
2023/02/23 06:19:57;;;;;;;36.80;16.67;;;-0.90;1.00;;;;;;4369740;28;657192;-74
2023/02/23 06:22:45;;;;;;;41.23;17.33;;;-0.90;1.00;;;;;;4418714;28;656611;-74
2023/02/23 06:25:32;;;;;;;47.17;20.60;;;-0.80;1.00;;;;;;4383819;28;657403;-74
2023/02/23 06:28:20;;;;;;;41.13;18.23;;;-0.70;1.00;;;;;;4415540;28;656042;-74
2023/02/23 06:31:08;;;;;;;51.97;19.10;;;-0.70;1.00;;;;;;4382878;28;657296;-74
2023/02/23 06:33:55;;;;;;;48.03;19.13;;;-0.60;1.00;;;;;;4400232;28;656749;-74
2023/02/23 06:36:42;;;;;;;47.23;19.47;;;-0.50;1.00;;;;;;4420291;28;657319;-74
2023/02/23 06:39:30;;;;;;;48.27;18.83;;;-0.40;1.00;;;;;;4394991;28;656629;-74
2023/02/23 06:42:17;;;;;;;41.20;20.13;;;-0.30;1.00;;;;;;4405552;28;657076;-74
2023/02/23 06:45:07;;;;;;;47.57;20.43;;;-0.20;1.00;;;;;;4405797;28;656394;-74
2023/02/23 06:47:55;;;;;;;46.23;19.63;;;-0.10;1.00;;;;;;4418136;28;656419;-74
2023/02/23 06:50:43;;;;;;;44.13;19.53;;;0.00;99.90;;;;;;4397930;28;657195;-74
2023/02/23 06:53:30;;;;;;;63.13;22.30;;;0.10;99.90;;;;;;4412521;28;656696;-74
2023/02/23 06:56:17;;;;;;;44.13;19.57;;;0.10;99.90;;;;;;4406061;28;657099;-74
2023/02/23 06:59:05;;;;;;;54.00;20.90;;;0.20;99.90;;;;;;4388709;28;657044;-74
2023/02/23 07:01:54;;;;;;;47.93;19.07;;;0.30;1.00;;;;;;4417324;28;657312;-74
2023/02/23 07:04:41;;;;;;;44.73;18.50;;;0.50;1.00;;;;;;4393281;28;655908;-74
2023/02/23 07:07:29;;;;;;;37.90;17.23;;;0.50;1.00;;;;;;4412223;28;656042;-74
2023/02/23 07:10:16;;;;;;;42.33;17.77;;;0.70;99.90;;;;;;4379026;28;655651;-73
2023/02/23 07:13:04;;;;;;;40.80;17.80;;;0.80;99.90;;;;;;4402923;28;656690;-73
2023/02/23 07:15:51;;;;;;;38.50;16.20;;;0.90;1.00;;;;;;4375946;28;656506;-73
2023/02/23 07:18:39;;;;;;;40.23;17.23;;;1.00;1.00;;;;;;4397723;28;655695;-73
2023/02/23 07:21:27;;;;;;;36.33;15.93;;;1.00;99.90;;;;;;4374962;28;655615;-73
2023/02/23 07:24:14;;;;;;;38.77;16.03;;;1.20;1.00;;;;;;4413733;28;656332;-73
2023/02/23 07:27:01;;;;;;;35.47;15.83;;;1.30;99.90;;;;;;4387819;28;655318;-73
2023/02/23 07:29:48;;;;;;;44.87;17.27;;;1.40;99.90;;;;;;4397654;28;656828;-73
2023/02/23 07:32:35;;;;;;;36.20;16.07;;;1.50;12.70;;;;;;4386818;28;656641;-73
2023/02/23 07:35:24;;;;;;;38.97;17.30;;;1.60;1.00;;;;;;4405629;28;657401;-73
2023/02/23 07:38:12;;;;;;;45.83;18.43;;;1.70;99.90;;;;;;4374773;28;655826;-74
2023/02/23 07:40:59;;;;;;;40.53;17.70;;;1.80;1.00;;;;;;4405738;28;656137;-73
2023/02/23 07:43:46;;;;;;;39.53;16.50;;;1.90;99.90;;;;;;4396036;28;655343;-73
2023/02/23 07:46:33;;;;;;;43.20;16.57;;;1.90;1.00;;;;;;4411027;28;656809;-73
2023/02/23 07:49:21;;;;;;;35.57;15.60;;;2.10;1.00;;;;;;4387986;28;655385;-74
2023/02/23 07:52:10;;;;;;;40.83;17.33;;;2.10;99.90;;;;;;4402413;28;656735;-73
2023/02/23 07:54:57;;;;;;;35.37;15.90;;;2.20;42.50;;;;;;4369008;28;657545;-73
2023/02/23 07:57:44;;;;;;;35.67;15.57;;;2.30;1.00;;;;;;4412666;28;656446;-73
2023/02/23 08:00:31;;;;;;;34.93;15.00;;;2.40;1.00;;;;;;4379079;28;655951;-73
2023/02/23 08:03:19;;;;;;;33.83;15.20;;;2.60;1.00;;;;;;4424451;28;655476;-73
2023/02/23 08:06:06;;;;;;;35.97;15.40;;;2.70;1.00;;;;;;4393328;28;655638;-74
2023/02/23 08:08:55;;;;;;;35.73;15.30;;;2.80;1.00;;;;;;4413030;28;655837;-73
2023/02/23 08:11:42;;;;;;;40.77;16.67;;;3.00;1.00;;;;;;4384693;28;655169;-73
2023/02/23 08:14:29;;;;;;;34.00;15.93;;;3.20;1.00;;;;;;4399435;28;654935;-73
2023/02/23 08:17:17;;;;;;;36.97;17.00;;;3.40;1.00;;;;;;4386928;28;655913;-73
2023/02/23 08:20:05;;;;;;;37.37;16.13;;;3.50;1.00;;;;;;4398546;28;655407;-73
2023/02/23 08:22:53;;;;;;;50.63;20.83;;;3.70;1.00;;;;;;4386538;28;655761;-73
2023/02/23 08:25:42;;;;;;;37.53;16.17;;;4.10;1.00;;;;;;4398726;28;656072;-73
2023/02/23 08:28:29;;;;;;;33.63;15.43;;;4.20;1.00;;;;;;4406783;28;655527;-73
2023/02/23 08:31:19;;;;;;;32.17;15.43;;;4.40;1.00;;;;;;4382175;28;655361;-73
2023/02/23 08:34:07;;;;;;;29.57;14.63;;;4.60;1.00;;;;;;4395912;28;656355;-73
2023/02/23 08:36:54;;;;;;;33.80;14.90;;;4.60;1.00;;;;;;4407228;28;655703;-73
2023/02/23 08:39:42;;;;;;;30.80;13.77;;;4.90;1.00;;;;;;4378292;28;655605;-73
2023/02/23 08:42:30;;;;;;;29.67;13.07;;;5.10;1.00;;;;;;4409295;28;654978;-73
2023/02/23 08:45:18;;;;;;;34.97;13.97;;;5.30;1.00;;;;;;4387660;28;656030;-73
2023/02/23 08:48:06;;;;;;;34.27;13.63;;;5.40;1.00;;;;;;4391794;28;656026;-73
2023/02/23 08:50:56;;;;;;;27.57;13.90;;;5.40;1.00;;;;;;4398938;28;656326;-73
2023/02/23 08:53:43;;;;;;;27.67;12.80;;;5.40;1.00;;;;;;4380224;28;655416;-73
2023/02/23 08:56:31;;;;;;;30.30;13.27;;;5.20;1.00;;;;;;4395124;28;656136;-73
2023/02/23 08:59:20;;;;;;;30.80;12.80;;;5.40;1.00;;;;;;4420123;28;656221;-73
2023/02/23 09:02:07;;;;;;;38.17;14.93;;;5.60;1.00;;;;;;4379727;28;655593;-73
2023/02/23 09:04:54;;;;;;;31.07;14.40;;;5.70;1.00;;;;;;4416973;28;655671;-73
2023/02/23 09:07:43;;;;;;;37.10;13.87;;;5.80;1.00;;;;;;4398706;28;656380;-73
2023/02/23 09:10:31;;;;;;;30.40;14.33;;;6.00;1.00;;;;;;4392509;28;655664;-74
2023/02/23 09:13:18;;;;;;;33.13;12.87;;;6.20;1.00;;;;;;4408473;28;656014;-74
2023/02/23 09:16:07;;;;;;;29.85;12.98;;;6.30;1.00;;;;;;4395627;28;656162;-74
2023/02/23 09:18:58;;;;;;;30.10;13.77;;;6.40;1.00;;;;;;4407583;28;655412;-74
2023/02/23 09:21:45;;;;;;;26.40;13.20;;;6.40;1.00;;;;;;4371743;28;655166;-74
2023/02/23 09:24:33;;;;;;;27.67;12.47;;;6.60;1.00;;;;;;4402788;28;656586;-74
2023/02/23 09:27:20;;;;;;;31.93;13.93;;;6.70;1.00;;;;;;4390256;28;656815;-74
2023/02/23 09:30:09;;;;;;;29.17;13.17;;;6.80;1.00;;;;;;4395925;28;655961;-74
2023/02/23 09:32:57;;;;;;;35.20;13.83;;;6.90;99.90;;;;;;4381795;28;655436;-74
2023/02/23 09:35:45;;;;;;;34.90;14.50;;;7.10;99.90;;;;;;4409797;28;656252;-74
2023/02/23 09:38:32;;;;;;;30.20;13.00;;;7.40;1.00;;;;;;4413875;28;656898;-74
2023/02/23 09:41:46;;;;;;;26.83;12.67;;;7.70;99.90;;;;;;4390188;28;656026;-74
2023/02/23 09:44:49;;;;;;;30.00;13.73;;;7.90;99.90;;;;;;4372369;28;656979;-74
2023/02/23 09:47:41;;;;;;;29.90;12.70;;;8.00;99.90;;;;;;4352669;28;656876;-74
2023/02/23 09:50:30;;;;;;;29.97;13.37;;;8.10;99.90;;;;;;4388555;28;657359;-74
2023/02/23 09:53:26;;;;;;;27.35;13.02;;;8.40;99.90;;;;;;4388027;28;656621;-74
2023/02/23 09:56:14;;;;;;;27.90;12.47;;;8.50;99.90;;;;;;4394251;28;656758;-74
2023/02/23 09:59:01;;;;;;;30.93;12.90;;;8.60;99.90;;;;;;4380374;28;656843;-74
2023/02/23 10:02:05;;;;;;;30.03;12.43;;;8.60;99.90;;;;;;4410910;28;656393;-74
2023/02/23 10:04:54;;;;;;;30.00;13.37;;;8.70;99.90;;;;;;4363728;28;656683;-74
2023/02/23 10:07:45;;;;;;;31.98;13.30;;;9.00;99.90;;;;;;4382693;28;656269;-74
2023/02/23 10:10:36;;;;;;;29.23;13.67;;;9.00;99.90;;;;;;4378510;28;657132;-74
2023/02/23 10:13:28;;;;;;;28.63;13.63;;;9.10;99.90;;;;;;4392542;28;656859;-74
2023/02/23 10:16:19;;;;;;;29.03;12.37;;;9.50;99.90;;;;;;4368753;28;657188;-74
2023/02/23 10:19:09;;;;;;;27.80;11.60;;;9.80;99.90;;;;;;4396872;28;656305;-74
2023/02/23 10:21:57;;;;;;;26.37;12.93;;;9.80;99.90;;;;;;4399445;28;656960;-74
2023/02/23 10:24:50;;;;;;;27.10;12.63;;;9.90;99.90;;;;;;4408964;28;656418;-74
2023/02/23 10:27:40;;;;;;;24.80;12.00;;;10.40;99.90;;;;;;4377659;28;658076;-74
2023/02/23 10:30:29;;;;;;;30.17;14.10;;;10.30;99.90;;;;;;4388283;28;659934;-74
2023/02/23 10:33:18;;;;;;;27.40;13.43;;;9.90;99.90;;;;;;4390364;28;658834;-74
2023/02/23 10:36:12;;;;;;;26.93;11.27;;;9.90;99.90;;;;;;4391961;28;658213;-74
2023/02/23 10:39:00;;;;;;;32.70;12.73;;;9.70;99.90;;;;;;4386065;28;657871;-74
2023/02/23 10:41:48;;;;;;;25.57;12.07;;;9.90;99.90;;;;;;4378364;28;658983;-74
2023/02/23 10:44:35;;;;;;;25.53;13.47;;;10.10;99.90;;;;;;4386570;28;657760;-74
2023/02/23 10:47:24;;;;;;;29.63;12.73;;;10.40;99.90;;;;;;4408901;28;659548;-74
2023/02/23 10:50:11;;;;;;;25.63;12.43;;;10.40;99.90;;;;;;4389670;28;659141;-74
2023/02/23 10:53:00;;;;;;;26.20;11.93;;;10.70;99.90;;;;;;4397600;28;658951;-74
2023/02/23 10:55:47;;;;;;;24.63;11.53;;;10.80;99.90;;;;;;4384475;28;659660;-74
2023/02/23 10:58:41;;;;;;;27.80;11.03;;;11.10;99.90;;;;;;4406695;28;658865;-74
2023/02/23 11:01:35;;;;;;;27.17;12.63;;;11.50;99.90;;;;;;4368126;28;658757;-74
2023/02/23 11:04:23;;;;;;;23.73;12.20;;;11.80;99.90;;;;;;4346008;28;658877;-74
2023/02/23 11:07:16;;;;;;;26.53;12.30;;;11.50;99.90;;;;;;4365109;28;659126;-74
2023/02/23 11:10:25;;;;;;;26.40;12.43;;;11.50;99.90;;;;;;4375397;28;658749;-74
2023/02/23 11:13:21;;;;;;;27.20;13.30;;;11.70;99.90;;;;;;4362777;28;658989;-74
2023/02/23 11:16:12;;;;;;;28.77;13.50;;;11.60;99.90;;;;;;4384287;28;658748;-74
2023/02/23 11:19:00;;;;;;;30.80;14.13;;;11.20;99.90;;;;;;4386573;28;658381;-74
2023/02/23 11:21:50;;;;;;;45.60;19.05;;;11.10;99.90;;;;;;4380908;28;659133;-74
2023/02/23 11:24:40;;;;;;;29.10;12.27;;;11.00;99.90;;;;;;4384619;28;659926;-74
2023/02/23 11:27:27;;;;;;;27.97;13.53;;;11.20;99.90;;;;;;4387363;28;659386;-74
2023/02/23 11:30:16;;;;;;;28.37;12.70;;;11.20;99.90;;;;;;4407499;28;658148;-74
2023/02/23 11:33:09;;;;;;;23.40;11.87;;;11.10;99.90;;;;;;4389198;28;659094;-74
2023/02/23 11:35:58;;;;;;;29.50;12.97;;;11.00;99.90;;;;;;4363437;28;659465;-74
2023/02/23 11:38:46;;;;;;;30.97;12.80;;;10.90;99.90;;;;;;4390055;28;658344;-74
2023/02/23 11:41:34;;;;;;;24.30;11.53;;;10.60;99.90;;;;;;4408689;28;659941;-74
2023/02/23 11:44:23;;;;;;;27.77;13.03;;;10.40;99.90;;;;;;4370869;28;658747;-74
2023/02/23 11:47:18;;;;;;;23.33;11.93;;;10.40;99.90;;;;;;4393110;28;658933;-74
2023/02/23 11:50:07;;;;;;;32.00;12.50;;;10.50;99.90;;;;;;4375504;28;658709;-74
2023/02/23 11:53:01;;;;;;;28.77;13.77;;;10.50;99.90;;;;;;4404126;28;658926;-74
2023/02/23 11:55:49;;;;;;;30.43;13.47;;;10.40;99.90;;;;;;4374836;28;658974;-74
2023/02/23 11:58:38;;;;;;;25.30;13.13;;;10.10;99.90;;;;;;4377232;28;658686;-74
2023/02/23 12:01:36;;;;;;;29.37;13.43;;;10.00;99.90;;;;;;4389211;28;658947;-74
2023/02/23 12:04:25;;;;;;;28.20;12.63;;;9.90;99.90;;;;;;4366184;28;659306;-74
2023/02/23 12:07:30;;;;;;;28.63;14.00;;;9.80;99.90;;;;;;4370973;28;658059;-74
2023/02/23 12:10:19;;;;;;;37.00;16.43;;;9.90;99.90;;;;;;4380627;28;657586;-74
2023/02/23 12:13:15;;;;;;;26.17;13.40;;;9.80;99.90;;;;;;4394878;28;658180;-74
2023/02/23 12:16:04;;;;;;;31.50;15.03;;;9.90;99.90;;;;;;4395294;28;657531;-74
2023/02/23 12:18:54;;;;;;;29.80;13.52;;;10.20;99.90;;;;;;4397331;28;657918;-74
2023/02/23 12:21:42;;;;;;;28.67;14.33;;;10.40;99.90;;;;;;4388828;28;658991;-74
2023/02/23 12:24:36;;;;;;;32.10;14.40;;;10.50;99.90;;;;;;4411038;28;658890;-74
2023/02/23 12:27:26;;;;;;;35.67;16.60;;;10.70;99.90;;;;;;4369210;28;658828;-74
2023/02/23 12:30:17;;;;;;;32.00;14.73;;;10.90;99.90;;;;;;4389596;28;659569;-74
2023/02/23 12:33:05;;;;;;;30.07;14.27;;;10.90;99.90;;;;;;4397620;28;658416;-74
2023/02/23 12:35:54;;;;;;;33.53;13.63;;;11.00;99.90;;;;;;4387094;28;659134;-74
2023/02/23 12:38:47;;;;;;;29.77;14.25;;;11.20;99.90;;;;;;4385895;28;658633;-74
2023/02/23 12:41:38;;;;;;;35.33;15.10;;;11.20;99.90;;;;;;4370859;28;658797;-74
2023/02/23 12:44:34;;;;;;;28.13;13.43;;;11.40;99.90;;;;;;4359321;28;659251;-74
2023/02/23 12:47:26;;;;;;;30.63;12.93;;;11.70;99.90;;;;;;4396474;28;658672;-73
2023/02/23 12:50:17;;;;;;;31.20;13.93;;;11.60;99.90;;;;;;4386567;28;659727;-74
2023/02/23 12:53:11;;;;;;;25.30;13.77;;;11.60;99.90;;;;;;4372254;28;658526;-74
2023/02/23 12:56:09;;;;;;;34.40;16.30;;;11.70;99.90;;;;;;4371637;28;659589;-73
2023/02/23 12:59:04;;;;;;;34.60;14.60;;;11.60;99.90;;;;;;4373639;28;658774;-74
2023/02/23 13:01:54;;;;;;;32.77;14.60;;;11.70;99.90;;;;;;4366017;28;659961;-74
2023/02/23 13:04:50;;;;;;;37.83;16.27;;;12.00;99.90;;;;;;4386141;28;659120;-74
2023/02/23 13:07:43;;;;;;;34.40;15.33;;;12.00;99.90;;;;;;4371893;28;659039;-74
2023/02/23 13:10:34;;;;;;;37.60;14.27;;;11.90;99.90;;;;;;4371841;28;658791;-73
2023/02/23 13:13:28;;;;;;;32.43;15.43;;;11.90;99.90;;;;;;4376753;28;658736;-74
2023/02/23 13:16:18;;;;;;;34.30;16.30;;;11.80;99.90;;;;;;4366041;28;659247;-73
2023/02/23 13:19:10;;;;;;;45.33;20.57;;;11.70;99.90;;;;;;4394589;28;658880;-74
2023/02/23 13:21:58;;;;;;;37.13;18.87;;;11.70;99.90;;;;;;4392437;28;658372;-74
2023/02/23 13:24:47;;;;;;;34.57;14.93;;;11.70;99.90;;;;;;4376872;28;658561;-74
2023/02/23 13:27:35;;;;;;;33.07;14.10;;;11.70;99.90;;;;;;4415072;28;658450;-74
2023/02/23 13:30:22;;;;;;;26.20;13.33;;;11.60;99.90;;;;;;4389165;28;658607;-74
2023/02/23 13:33:17;;;;;;;28.43;13.07;;;11.50;99.90;;;;;;4388425;28;658581;-73
2023/02/23 13:36:05;;;;;;;26.83;12.53;;;11.60;99.90;;;;;;4370372;28;659131;-74
2023/02/23 13:39:27;;;;;;;31.00;13.50;;;11.60;99.90;;;;;;4366893;28;659633;-74
2023/02/23 13:42:21;;;;;;;27.50;14.60;;;11.40;99.90;;;;;;4303430;28;659008;-73
2023/02/23 13:45:42;;;;;;;31.37;16.00;;;11.40;99.90;;;;;;4388016;28;659082;-73
2023/02/23 13:48:40;;;;;;;30.27;15.50;;;11.30;99.90;;;;;;4365495;28;659040;-73
2023/02/23 13:51:35;;;;;;;38.37;16.37;;;11.20;99.90;;;;;;4381124;28;659075;-73
2023/02/23 13:54:23;;;;;;;28.17;14.70;;;10.90;99.90;;;;;;4342374;28;659545;-73
2023/02/23 13:57:16;;;;;;;32.87;14.53;;;10.60;99.90;;;;;;4385337;28;658269;-73
2023/02/23 14:00:04;;;;;;;30.67;14.17;;;10.60;99.90;;;;;;4381543;28;659294;-73
2023/02/23 14:02:51;;;;;;;31.13;14.87;;;10.20;99.90;;;;;;4394600;28;658665;-73
2023/02/23 14:05:43;;;;;;;37.67;14.37;;;10.10;99.90;;;;;;4401766;28;659428;-73
2023/02/23 14:08:33;;;;;;;34.80;16.47;;;10.00;99.90;;;;;;4341620;28;659000;-73
2023/02/23 14:11:46;;;;;;;38.87;16.70;;;10.00;99.90;;;;;;4373741;28;659135;-73
2023/02/23 14:14:42;;;;;;;31.03;15.17;;;9.90;99.90;;;;;;4362104;28;659220;-73
2023/02/23 14:17:43;;;;;;;31.07;13.50;;;9.80;99.90;;;;;;4382726;28;657534;-73
2023/02/23 14:20:46;;;;;;;33.70;15.20;;;9.60;99.90;;;;;;4355601;28;658053;-73
2023/02/23 14:23:35;;;;;;;30.57;14.90;;;9.50;99.90;;;;;;4379332;28;657578;-73
2023/02/23 14:26:39;;;;;;;33.93;15.33;;;9.40;99.90;;;;;;4375317;28;658516;-73
2023/02/23 14:29:28;;;;;;;32.10;14.88;;;9.40;99.90;;;;;;4366028;28;658211;-73
2023/02/23 14:32:28;;;;;;;33.17;15.17;;;9.30;99.90;;;;;;4375643;28;657714;-74
2023/02/23 14:35:44;;;;;;;33.23;14.43;;;9.10;99.90;;;;;;4360820;28;657633;-73
2023/02/23 14:38:33;;;;;;;34.60;15.73;;;9.00;99.90;;;;;;4355538;28;657292;-74
2023/02/23 14:41:21;;;;;;;42.53;16.40;;;8.80;99.90;;;;;;4398194;28;658150;-73
2023/02/23 14:44:13;;;;;;;42.37;17.33;;;8.70;99.90;;;;;;4394293;28;658436;-73
2023/02/23 14:47:02;;;;;;;41.80;16.70;;;8.70;99.90;;;;;;4378237;28;658121;-73
2023/02/23 14:49:51;;;;;;;42.97;16.90;;;8.60;99.90;;;;;;4408338;28;657483;-73
2023/02/23 14:52:40;;;;;;;30.67;15.37;;;8.60;99.90;;;;;;4383500;28;657814;-73
2023/02/23 14:55:29;;;;;;;38.60;16.57;;;8.50;99.90;;;;;;4390428;28;659648;-73
2023/02/23 14:58:21;;;;;;;40.10;16.07;;;8.30;99.90;;;;;;4376764;28;657551;-73
2023/02/23 15:01:08;;;;;;;38.83;17.53;;;8.30;99.90;;;;;;4384971;28;658550;-73
2023/02/23 15:04:09;;;;;;;43.20;17.87;;;8.20;99.90;;;;;;4389135;28;657786;-73
2023/02/23 15:06:57;;;;;;;37.40;16.80;;;8.10;99.90;;;;;;4337711;28;657540;-74
2023/02/23 15:09:44;;;;;;;43.37;17.73;;;7.90;99.90;;;;;;4384904;28;658415;-73
2023/02/23 15:12:36;;;;;;;42.83;18.97;;;7.90;99.90;;;;;;4369754;28;658496;-74
2023/02/23 15:15:24;;;;;;;41.97;18.17;;;7.80;99.90;;;;;;4385506;28;657850;-73
2023/02/23 15:18:16;;;;;;;47.93;18.80;;;7.80;99.90;;;;;;4380683;28;658233;-73
2023/02/23 15:21:05;;;;;;;42.90;18.57;;;7.70;99.90;;;;;;4372490;28;658213;-73
2023/02/23 15:23:57;;;;;;;52.10;21.67;;;7.70;99.90;;;;;;4373927;28;658632;-73
2023/02/23 15:26:46;;;;;;;52.43;22.07;;;7.60;99.90;;;;;;4390154;28;657721;-73
2023/02/23 15:29:34;;;;;;;41.73;20.00;;;7.50;99.90;;;;;;4402998;28;658959;-73
2023/02/23 15:32:23;;;;;;;44.67;19.50;;;7.40;99.90;;;;;;4395581;28;657921;-73
2023/02/23 15:35:11;;;;;;;48.47;20.53;;;7.30;99.90;;;;;;4393512;28;657555;-73
2023/02/23 15:37:58;;;;;;;66.83;24.50;;;7.30;99.90;;;;;;4411162;28;657625;-73
2023/02/23 15:40:46;;;;;;;51.47;22.97;;;7.10;99.90;;;;;;4394199;28;657622;-73
2023/02/23 15:43:33;;;;;;;53.70;22.57;;;7.10;99.90;;;;;;4408261;28;658594;-73